createdAt,value
2022-12-11T00:03:12.753Z,45.95
2022-12-11T00:09:59.508Z,52.78
2022-12-11T00:13:21.433Z,51.20
2022-12-11T00:16:43.555Z,60.33
2022-12-11T00:20:06.240Z,56.53
2022-12-11T00:23:28.993Z,53.17
2022-12-11T00:26:51.044Z,57.20
2022-12-11T00:30:13.970Z,50.50
2022-12-11T00:33:35.976Z,53.35
2022-12-11T00:37:01.166Z,51.58
2022-12-11T00:40:23.374Z,55.97
2022-12-11T00:43:45.544Z,51.25
2022-12-11T00:47:08.510Z,45.90
2022-12-11T00:50:30.468Z,54.90
2022-12-11T00:53:52.724Z,50.30
2022-12-11T00:57:14.650Z,55.42
2022-12-11T01:00:37.436Z,46.92
2022-12-11T01:03:59.457Z,62.00
2022-12-11T01:07:21.426Z,54.90
2022-12-11T01:10:43.366Z,51.55
2022-12-11T01:14:05.844Z,53.53
2022-12-11T01:17:27.856Z,57.72
2022-12-11T01:20:49.885Z,58.80
2022-12-11T01:24:11.927Z,60.80
2022-12-11T01:27:34.147Z,51.78
2022-12-11T01:30:56.199Z,57.22
2022-12-11T01:34:18.360Z,48.25
2022-12-11T01:37:40.649Z,68.70
2022-12-11T01:41:03.162Z,61.50
2022-12-11T01:44:25.078Z,62.50
2022-12-11T01:47:47.881Z,57.05
2022-12-11T01:51:09.951Z,51.08
2022-12-11T01:54:32.538Z,57.78
2022-12-11T01:57:55.525Z,66.97
2022-12-11T02:01:36.957Z,64.03
2022-12-11T02:04:58.979Z,72.70
2022-12-11T02:08:21.478Z,62.85
2022-12-11T02:11:55.360Z,57.42
2022-12-11T02:15:35.742Z,63.30
2022-12-11T02:19:03.354Z,54.05
2022-12-11T02:22:46.586Z,48.30
2022-12-11T02:26:27.333Z,47.05
2022-12-11T02:29:51.543Z,41.33
2022-12-11T02:33:15.209Z,39.05
2022-12-11T02:36:41.202Z,39.00
2022-12-11T02:40:05.524Z,46.85
2022-12-11T02:43:30.738Z,45.53
2022-12-11T02:46:53.612Z,44.28
2022-12-11T02:50:20.075Z,40.08
2022-12-11T02:53:44.337Z,37.78
2022-12-11T02:57:09.143Z,35.00
2022-12-11T03:00:31.784Z,38.45
2022-12-11T03:03:55.248Z,33.50
2022-12-11T03:07:25.401Z,39.80
2022-12-11T03:14:09.770Z,33.17
2022-12-11T03:17:49.833Z,34.45
2022-12-11T03:21:35.564Z,33.78
2022-12-11T03:25:05.807Z,26.27
2022-12-11T03:28:36.432Z,21.60
2022-12-11T03:32:14.733Z,13.40
2022-12-11T03:35:44.845Z,8.15
2022-12-11T03:42:36.313Z,7.50
2022-12-11T03:46:00.838Z,7.22
2022-12-11T03:49:26.771Z,6.57
2022-12-11T03:52:50.499Z,2.50
2022-12-11T03:56:15.723Z,3.63
2022-12-11T03:59:38.094Z,1.85
2022-12-11T04:03:16.479Z,2.53
2022-12-11T04:06:38.490Z,2.83
2022-12-11T04:10:01.089Z,1.27
2022-12-11T04:13:23.114Z,2.22
2022-12-11T04:16:45.104Z,2.05
2022-12-11T04:20:26.626Z,1.70
2022-12-11T04:24:07.231Z,2.45
2022-12-11T04:31:14.963Z,1.45
2022-12-11T04:34:36.934Z,1.50
2022-12-11T04:37:59.310Z,1.80
2022-12-11T04:41:21.277Z,4.13
2022-12-11T04:44:43.311Z,2.65
2022-12-11T04:48:05.470Z,2.67
2022-12-11T04:51:28.521Z,1.27
2022-12-11T04:54:51.561Z,2.10
2022-12-11T04:58:13.994Z,2.35
2022-12-11T05:01:35.983Z,1.30
2022-12-11T05:04:57.948Z,1.33
2022-12-11T05:08:23.262Z,1.55
2022-12-11T05:11:45.248Z,1.92
2022-12-11T05:15:08.049Z,2.95
2022-12-11T05:18:30.131Z,0.95
2022-12-11T05:21:52.118Z,1.02
2022-12-11T05:25:14.246Z,1.40
2022-12-11T05:28:38.447Z,1.35
2022-12-11T05:32:00.434Z,2.42
2022-12-11T05:35:22.376Z,1.85
2022-12-11T05:38:45.067Z,2.38
2022-12-11T05:42:07.014Z,1.83
2022-12-11T05:45:28.980Z,1.85
2022-12-11T05:48:54.359Z,1.27
2022-12-11T05:52:16.827Z,1.40
2022-12-11T05:55:38.792Z,0.55
2022-12-11T05:59:02.045Z,0.93
2022-12-11T06:02:24.193Z,0.80
2022-12-11T06:05:46.205Z,0.52
2022-12-11T06:09:08.425Z,0.70
2022-12-11T06:12:31.193Z,0.57
2022-12-11T06:15:53.382Z,0.30
2022-12-11T06:19:18.419Z,1.15
2022-12-11T06:22:40.470Z,0.35
2022-12-11T06:26:04.070Z,0.50
2022-12-11T06:29:26.043Z,0.10
2022-12-11T06:32:48.062Z,0.30
2022-12-11T06:36:13.336Z,0.38
2022-12-11T06:39:35.291Z,0.30
2022-12-11T06:42:57.256Z,0.30
2022-12-11T06:46:20.701Z,0.55
2022-12-11T06:49:42.699Z,0.70
2022-12-11T06:53:04.709Z,0.77
2022-12-11T06:56:26.661Z,0.70
2022-12-11T06:59:48.825Z,0.70
2022-12-11T07:03:11.980Z,0.40
2022-12-11T07:06:34.415Z,0.98
2022-12-11T07:10:30.568Z,1.48
2022-12-11T07:13:53.115Z,1.02
2022-12-11T07:17:15.141Z,0.98
2022-12-11T07:20:37.092Z,3.95
2022-12-11T07:23:59.410Z,26.10
2022-12-11T07:27:21.866Z,6.53
2022-12-11T07:30:43.866Z,1.80
2022-12-11T07:34:07.235Z,4.28
2022-12-11T07:37:29.212Z,4.15
2022-12-11T07:40:51.129Z,6.35
2022-12-11T07:44:13.390Z,5.38
2022-12-11T07:47:35.371Z,9.35
2022-12-11T07:51:07.700Z,5.95
2022-12-11T07:54:29.642Z,5.85
2022-12-11T07:57:51.646Z,2.17
2022-12-11T08:01:26.988Z,5.70
2022-12-11T08:04:50.028Z,3.78
2022-12-11T08:08:12.123Z,5.45
2022-12-11T08:11:56.664Z,4.05
2022-12-11T08:15:29.630Z,6.60
2022-12-11T08:18:53.581Z,4.53
2022-12-11T08:22:15.920Z,3.28
2022-12-11T08:25:37.935Z,6.40
2022-12-11T08:29:01.231Z,4.63
2022-12-11T08:32:23.289Z,15.93
2022-12-11T08:35:46.447Z,18.52
2022-12-11T08:39:09.968Z,4.90
2022-12-11T08:42:32.806Z,3.92
2022-12-11T08:45:54.886Z,3.47
2022-12-11T08:49:17.600Z,4.20
2022-12-11T08:52:39.847Z,4.40
2022-12-11T08:56:06.946Z,2.95
2022-12-11T08:59:29.093Z,5.13
2022-12-11T09:02:51.180Z,5.97
2022-12-11T09:06:16.606Z,3.53
2022-12-11T09:09:38.748Z,5.30
2022-12-11T09:13:00.824Z,5.35
2022-12-11T09:16:24.665Z,3.40
2022-12-11T09:19:46.751Z,5.30
2022-12-11T09:23:09.046Z,3.72
2022-12-11T09:26:31.519Z,15.77
2022-12-11T09:29:53.464Z,7.32
2022-12-11T09:33:15.554Z,6.82
2022-12-11T09:36:39.175Z,6.22
2022-12-11T09:40:05.724Z,4.43
2022-12-11T09:43:37.771Z,4.75
2022-12-11T09:50:32.830Z,5.70
2022-12-11T09:54:00.032Z,6.15
2022-12-11T09:57:59.173Z,4.25
2022-12-11T10:01:46.185Z,4.47
2022-12-11T10:05:29.732Z,4.30
2022-12-11T10:09:19.131Z,4.30
2022-12-11T10:12:53.054Z,6.50
2022-12-11T10:16:40.747Z,4.95
2022-12-11T10:20:28.745Z,6.55
2022-12-11T10:24:01.234Z,6.63
2022-12-11T10:27:32.968Z,5.70
2022-12-11T10:30:59.266Z,9.25
2022-12-11T10:34:37.801Z,7.55
2022-12-11T10:38:12.865Z,8.02
2022-12-11T10:41:40.500Z,8.35
2022-12-11T10:45:05.672Z,6.32
2022-12-11T10:48:27.744Z,6.22
2022-12-11T10:51:52.049Z,5.65
2022-12-11T10:55:27.646Z,7.53
2022-12-11T10:58:53.020Z,5.15
2022-12-11T11:02:23.860Z,8.40
2022-12-11T11:05:49.348Z,5.82
2022-12-11T11:09:34.850Z,5.88
2022-12-11T11:13:02.035Z,6.22
2022-12-11T11:16:24.867Z,8.13
2022-12-11T11:19:48.618Z,7.03
2022-12-11T11:23:46.260Z,15.25
2022-12-11T11:27:38.257Z,5.65
2022-12-11T11:31:14.174Z,7.03
2022-12-11T11:34:36.243Z,6.18
2022-12-11T11:38:04.022Z,7.13
2022-12-11T11:41:34.405Z,8.82
2022-12-11T11:45:20.623Z,9.30
2022-12-11T11:48:49.014Z,4.70
2022-12-11T11:52:18.033Z,5.45
2022-12-11T11:56:08.500Z,6.87
2022-12-11T11:59:41.565Z,6.77
2022-12-11T12:03:12.474Z,6.07
2022-12-11T12:06:55.162Z,6.00
2022-12-11T12:10:29.509Z,6.65
2022-12-11T12:14:50.711Z,7.63
2022-12-11T12:18:10.205Z,10.38
2022-12-11T12:21:37.442Z,9.75
2022-12-11T12:25:20.891Z,6.22
2022-12-11T12:28:57.911Z,5.65
2022-12-11T12:32:43.697Z,6.22
2022-12-11T12:36:25.773Z,4.53
2022-12-11T12:40:16.724Z,3.92
2022-12-11T12:43:53.171Z,6.35
2022-12-11T12:47:18.502Z,7.53
2022-12-11T12:50:47.707Z,11.25
2022-12-11T12:54:15.365Z,12.90
2022-12-11T12:57:39.734Z,22.70
2022-12-11T13:01:19.348Z,4.40
2022-12-11T13:04:59.448Z,4.40
2022-12-11T13:08:26.905Z,5.05
2022-12-11T13:11:53.681Z,4.80
2022-12-11T13:15:26.416Z,4.53
2022-12-11T13:18:49.078Z,6.55
2022-12-11T13:22:14.398Z,4.07
2022-12-11T13:26:04.587Z,5.47
2022-12-11T13:29:39.012Z,4.57
2022-12-11T13:33:18.211Z,3.72
2022-12-11T13:36:45.945Z,3.95
2022-12-11T13:40:17.640Z,4.45
2022-12-11T13:43:42.355Z,4.47
2022-12-11T13:47:06.009Z,3.58
2022-12-11T13:50:35.260Z,3.75
2022-12-11T13:54:04.725Z,2.67
2022-12-11T13:57:28.815Z,5.53
2022-12-11T14:01:15.401Z,2.28
2022-12-11T14:04:38.236Z,4.15
2022-12-11T14:08:05.294Z,3.53
2022-12-11T14:11:40.225Z,3.92
2022-12-11T14:15:04.678Z,8.15
2022-12-11T14:18:32.850Z,6.22
2022-12-11T14:22:00.799Z,7.13
2022-12-11T14:25:26.001Z,3.55
2022-12-11T14:28:48.432Z,3.20
2022-12-11T14:32:20.424Z,4.80
2022-12-11T14:35:44.268Z,5.50
2022-12-11T14:39:16.503Z,5.85
2022-12-11T14:42:47.927Z,4.72
2022-12-11T14:46:18.336Z,4.43
2022-12-11T14:50:03.957Z,7.03
2022-12-11T14:53:34.835Z,5.80
2022-12-11T14:56:57.748Z,4.85
2022-12-11T15:00:25.049Z,6.38
2022-12-11T15:03:47.335Z,7.05
2022-12-11T15:07:22.097Z,6.63
2022-12-11T15:11:06.140Z,5.45
2022-12-11T15:14:28.311Z,7.90
2022-12-11T15:17:52.960Z,7.65
2022-12-11T15:21:16.729Z,6.28
2022-12-11T15:24:41.900Z,6.18
2022-12-11T15:28:04.051Z,5.65
2022-12-11T15:31:27.470Z,7.00
2022-12-11T15:34:58.712Z,9.05
2022-12-11T15:38:34.195Z,7.07
2022-12-11T15:42:40.000Z,7.30
2022-12-11T15:46:04.447Z,6.07
2022-12-11T15:49:26.465Z,11.52
2022-12-11T15:52:49.580Z,8.65
2022-12-11T15:56:16.424Z,8.32
2022-12-11T15:59:38.420Z,11.10
2022-12-11T16:03:00.556Z,18.42
2022-12-11T16:06:22.489Z,7.32
2022-12-11T16:09:45.145Z,8.07
2022-12-11T16:13:07.240Z,7.25
2022-12-11T16:16:29.206Z,5.40
2022-12-11T16:19:54.191Z,6.10
2022-12-11T16:23:17.319Z,11.35
2022-12-11T16:26:39.266Z,6.53
2022-12-11T16:30:01.501Z,9.38
2022-12-11T16:33:23.552Z,10.88
2022-12-11T16:36:45.646Z,8.75
2022-12-11T16:40:08.495Z,10.23
2022-12-11T16:43:30.605Z,7.38
2022-12-11T16:46:53.816Z,8.18
2022-12-11T16:50:16.447Z,7.38
2022-12-11T16:53:38.443Z,7.05
2022-12-11T16:57:11.269Z,8.27
2022-12-11T17:00:33.184Z,7.90
2022-12-11T17:03:55.495Z,8.05
2022-12-11T17:07:19.784Z,9.80
2022-12-11T17:10:42.213Z,10.38
2022-12-11T17:14:05.230Z,11.45
2022-12-11T17:17:27.265Z,9.50
2022-12-11T17:20:51.367Z,16.45
2022-12-11T17:24:13.594Z,12.82
2022-12-11T17:27:35.868Z,11.68
2022-12-11T17:30:58.771Z,10.57
2022-12-11T17:34:21.340Z,19.25
2022-12-11T17:37:43.697Z,19.85
2022-12-11T17:41:08.153Z,12.07
2022-12-11T17:44:31.216Z,17.55
2022-12-11T17:47:53.727Z,46.95
2022-12-11T17:51:24.801Z,28.05
2022-12-11T17:54:47.116Z,30.02
2022-12-11T17:58:22.054Z,22.00
2022-12-11T18:01:44.794Z,18.90
2022-12-11T18:05:07.905Z,18.98
2022-12-11T18:08:30.802Z,16.85
2022-12-11T18:11:53.692Z,24.55
2022-12-11T18:15:20.587Z,23.88
2022-12-11T18:18:43.036Z,12.98
2022-12-11T18:22:05.333Z,13.77
2022-12-11T18:25:27.784Z,10.68
2022-12-11T18:28:51.440Z,13.25
2022-12-11T18:32:13.868Z,11.77
2022-12-11T18:35:36.317Z,17.05
2022-12-11T18:38:59.012Z,12.05
2022-12-11T18:42:32.667Z,12.32
2022-12-11T18:45:55.632Z,14.45
2022-12-11T18:49:18.549Z,17.98
2022-12-11T18:52:40.782Z,19.50
2022-12-11T18:56:11.173Z,15.98
2022-12-11T18:59:34.134Z,23.42
2022-12-11T19:02:56.716Z,27.55
2022-12-11T19:06:21.959Z,35.53
2022-12-11T19:09:48.060Z,25.65
2022-12-11T19:13:12.167Z,37.42
2022-12-11T19:16:38.881Z,46.38
2022-12-11T19:20:18.766Z,37.13
2022-12-11T19:23:44.798Z,29.38
2022-12-11T19:27:13.288Z,22.27
2022-12-11T19:30:37.167Z,19.15
2022-12-11T19:34:01.415Z,22.95
2022-12-11T19:37:24.441Z,24.52
2022-12-11T19:40:47.254Z,32.33
2022-12-11T19:44:10.703Z,25.02
2022-12-11T19:47:33.112Z,18.75
2022-12-11T19:50:55.516Z,19.77
2022-12-11T19:54:18.368Z,17.80
2022-12-11T19:57:40.888Z,45.35
2022-12-11T20:01:06.492Z,42.25
2022-12-11T20:04:28.840Z,38.60
2022-12-11T20:07:52.542Z,35.33
2022-12-11T20:11:18.748Z,27.40
2022-12-11T20:14:41.899Z,19.30
2022-12-11T20:18:04.008Z,25.48
2022-12-11T20:21:27.702Z,20.80
2022-12-11T20:24:50.516Z,16.30
2022-12-11T20:28:12.766Z,27.38
2022-12-11T20:31:36.092Z,31.77
2022-12-11T20:34:58.658Z,20.65
2022-12-11T20:38:22.164Z,24.75
2022-12-11T20:41:44.451Z,24.58
2022-12-11T20:45:08.199Z,65.47
2022-12-11T20:48:30.446Z,33.75
2022-12-11T20:51:56.510Z,29.27
2022-12-11T20:55:19.321Z,19.15
2022-12-11T20:58:41.894Z,28.27
2022-12-11T21:02:05.705Z,70.47
2022-12-11T21:05:27.814Z,20.30
2022-12-11T21:08:49.877Z,18.63
2022-12-11T21:12:14.620Z,18.58
2022-12-11T21:15:38.529Z,17.30
2022-12-11T21:19:01.731Z,17.80
2022-12-11T21:22:24.059Z,21.02
2022-12-11T21:25:46.261Z,16.60
2022-12-11T21:29:08.623Z,18.60
2022-12-11T21:32:31.237Z,20.63
2022-12-11T21:36:00.636Z,19.00
2022-12-11T21:39:28.606Z,16.27
2022-12-11T21:42:51.082Z,21.02
2022-12-11T21:46:18.684Z,17.38
2022-12-11T21:49:42.257Z,16.88
2022-12-11T21:53:04.818Z,22.02
2022-12-11T21:56:28.625Z,24.25
2022-12-11T21:59:51.082Z,17.38
2022-12-11T22:03:13.204Z,24.98
2022-12-11T22:06:35.671Z,23.95
2022-12-11T22:09:58.095Z,19.05
2022-12-11T22:13:20.129Z,26.00
2022-12-11T22:16:42.767Z,24.08
2022-12-11T22:20:06.105Z,23.35
2022-12-11T22:23:28.294Z,22.60
2022-12-11T22:26:50.268Z,21.02
2022-12-11T22:30:14.637Z,20.90
2022-12-11T22:33:36.735Z,22.10
2022-12-11T22:36:58.703Z,23.83
2022-12-11T22:40:20.849Z,21.60
2022-12-11T22:43:42.824Z,20.55
2022-12-11T22:47:04.860Z,20.48
2022-12-11T22:50:26.870Z,27.85
2022-12-11T22:53:49.060Z,22.20
2022-12-11T22:57:11.127Z,22.40
2022-12-11T23:00:33.142Z,25.75
2022-12-11T23:03:55.157Z,19.88
2022-12-11T23:07:17.177Z,23.30
2022-12-11T23:10:42.758Z,23.75
2022-12-11T23:14:06.476Z,25.88
2022-12-11T23:17:28.410Z,23.05
2022-12-11T23:20:50.461Z,24.77
2022-12-11T23:24:12.603Z,23.10
2022-12-11T23:27:34.544Z,19.90
2022-12-11T23:30:56.530Z,30.00
2022-12-11T23:34:18.509Z,21.75
2022-12-11T23:37:40.415Z,22.90
2022-12-11T23:41:04.407Z,21.55
2022-12-11T23:44:26.366Z,19.60
2022-12-11T23:47:48.516Z,23.10
2022-12-11T23:51:14.652Z,21.35
2022-12-11T23:54:36.586Z,16.92
2022-12-11T23:57:58.655Z,18.13
